createdAt,value
2018-12-03T00:01:35.021Z,15.57
2018-12-03T00:04:12.986Z,13.73
2018-12-03T00:06:42.164Z,14.23
2018-12-03T00:09:14.069Z,16.30
2018-12-03T00:11:44.324Z,16.67
2018-12-03T00:14:14.446Z,18.37
2018-12-03T00:16:43.664Z,16.77
2018-12-03T00:19:12.943Z,17.30
2018-12-03T00:21:42.147Z,18.67
2018-12-03T00:24:22.064Z,16.43
2018-12-03T00:26:51.404Z,17.63
2018-12-03T00:29:21.359Z,20.07
2018-12-03T00:31:53.990Z,18.53
2018-12-03T00:34:24.465Z,18.53
2018-12-03T00:36:55.097Z,17.27
2018-12-03T00:39:24.634Z,19.37
2018-12-03T00:41:54.137Z,20.47
2018-12-03T00:44:24.620Z,17.80
2018-12-03T00:46:56.760Z,13.50
2018-12-03T00:49:27.174Z,12.70
2018-12-03T00:51:56.700Z,12.03
2018-12-03T00:54:26.960Z,9.87
2018-12-03T00:56:57.298Z,10.37
2018-12-03T00:59:27.173Z,10.17
2018-12-03T01:01:56.849Z,10.57
2018-12-03T01:04:26.575Z,11.57
2018-12-03T01:06:55.960Z,11.37
2018-12-03T01:09:29.519Z,12.43
2018-12-03T01:11:58.814Z,11.70
2018-12-03T01:14:28.323Z,13.57
2018-12-03T01:16:57.559Z,12.97
2018-12-03T01:19:26.855Z,13.93
2018-12-03T01:21:56.300Z,13.60
2018-12-03T01:24:25.477Z,14.63
2018-12-03T01:26:54.592Z,14.47
2018-12-03T01:29:24.736Z,13.33
2018-12-03T01:31:55.189Z,13.57
2018-12-03T01:34:24.404Z,13.37
2018-12-03T01:36:53.569Z,12.67
2018-12-03T01:39:22.914Z,12.13
2018-12-03T01:41:54.495Z,13.83
2018-12-03T01:44:25.874Z,12.63
2018-12-03T01:46:55.244Z,12.87
2018-12-03T01:49:25.651Z,13.07
2018-12-03T01:52:00.691Z,13.10
2018-12-03T01:54:29.964Z,12.50
2018-12-03T01:56:59.391Z,12.70
2018-12-03T01:59:28.859Z,11.83
2018-12-03T02:01:58.590Z,13.90
2018-12-03T02:04:27.920Z,12.43
2018-12-03T02:06:57.035Z,11.77
2018-12-03T02:09:26.393Z,12.53
2018-12-03T02:11:55.585Z,11.50
2018-12-03T02:14:24.845Z,11.33
2018-12-03T02:16:55.579Z,11.43
2018-12-03T02:19:25.030Z,11.00
2018-12-03T02:21:54.425Z,11.40
2018-12-03T02:24:31.560Z,9.70
2018-12-03T02:27:00.993Z,9.57
2018-12-03T02:29:30.424Z,9.47
2018-12-03T02:31:59.870Z,10.07
2018-12-03T02:34:29.544Z,8.87
2018-12-03T02:36:58.823Z,8.47
2018-12-03T02:39:37.690Z,9.47
2018-12-03T02:42:08.865Z,9.00
2018-12-03T02:44:38.335Z,9.60
2018-12-03T02:47:08.070Z,10.73
2018-12-03T02:49:38.070Z,9.30
2018-12-03T02:52:07.680Z,10.90
2018-12-03T02:54:39.174Z,8.80
2018-12-03T02:57:08.381Z,10.17
2018-12-03T02:59:37.620Z,10.80
2018-12-03T03:02:07.830Z,10.53
2018-12-03T03:04:36.993Z,10.50
2018-12-03T03:07:06.907Z,11.07
2018-12-03T03:09:36.366Z,10.37
2018-12-03T03:12:05.571Z,9.77
2018-12-03T03:14:34.830Z,9.07
2018-12-03T03:17:04.020Z,9.60
2018-12-03T03:19:33.379Z,10.20
2018-12-03T03:22:02.865Z,9.03
2018-12-03T03:24:32.608Z,8.53
2018-12-03T03:27:02.270Z,9.00
2018-12-03T03:29:31.987Z,8.60
2018-12-03T03:32:01.183Z,8.77
2018-12-03T03:34:30.430Z,8.93
2018-12-03T03:36:59.710Z,9.30
2018-12-03T03:39:30.274Z,8.27
2018-12-03T03:41:59.534Z,8.37
2018-12-03T03:44:28.911Z,9.03
2018-12-03T03:46:58.160Z,8.13
2018-12-03T03:49:27.322Z,8.27
2018-12-03T03:51:56.622Z,8.10
2018-12-03T03:54:25.798Z,8.63
2018-12-03T03:56:55.363Z,9.57
2018-12-03T03:59:24.563Z,8.60
2018-12-03T04:01:54.048Z,7.13
2018-12-03T04:04:23.512Z,4.40
2018-12-03T04:06:53.117Z,1.37
2018-12-03T04:09:22.497Z,1.50
2018-12-03T04:11:51.679Z,0.90
2018-12-03T04:14:20.878Z,1.10
2018-12-03T04:16:52.639Z,0.60
2018-12-03T04:19:21.839Z,0.63
2018-12-03T04:21:51.701Z,0.70
2018-12-03T04:24:25.217Z,0.60
2018-12-03T04:27:01.912Z,0.87
2018-12-03T04:29:31.173Z,0.93
2018-12-03T04:32:00.963Z,1.20
2018-12-03T04:34:30.200Z,1.80
2018-12-03T04:36:59.466Z,3.03
2018-12-03T04:39:29.252Z,3.83
2018-12-03T04:41:58.894Z,4.23
2018-12-03T04:44:29.737Z,6.27
2018-12-03T04:47:02.774Z,7.17
2018-12-03T04:49:45.695Z,8.00
2018-12-03T04:52:14.841Z,7.93
2018-12-03T04:54:44.127Z,8.70
2018-12-03T04:57:13.468Z,8.90
2018-12-03T04:59:45.177Z,8.87
2018-12-03T05:02:14.597Z,9.60
2018-12-03T05:04:44.473Z,9.97
2018-12-03T05:07:13.627Z,10.00
2018-12-03T05:09:42.775Z,9.97
2018-12-03T05:12:11.904Z,8.90
2018-12-03T05:14:41.097Z,9.87
2018-12-03T05:17:11.639Z,13.83
2018-12-03T05:19:44.551Z,9.53
2018-12-03T05:22:32.762Z,11.70
2018-12-03T05:25:02.065Z,8.73
2018-12-03T05:27:31.590Z,7.80
2018-12-03T05:30:01.585Z,10.10
2018-12-03T05:32:38.107Z,8.20
2018-12-03T05:35:12.904Z,7.83
2018-12-03T05:37:42.395Z,7.73
2018-12-03T05:40:17.917Z,6.90
2018-12-03T05:42:47.380Z,7.73
2018-12-03T05:45:19.408Z,7.87
2018-12-03T05:47:49.754Z,8.30
2018-12-03T05:50:19.163Z,7.70
2018-12-03T05:52:49.171Z,7.20
2018-12-03T05:55:18.369Z,7.23
2018-12-03T05:57:47.552Z,6.93
2018-12-03T06:00:21.412Z,6.80
2018-12-03T06:02:51.095Z,6.80
2018-12-03T06:05:20.600Z,7.10
2018-12-03T06:07:50.218Z,5.90
2018-12-03T06:10:20.775Z,7.30
2018-12-03T06:12:50.459Z,7.27
2018-12-03T06:15:21.068Z,7.33
2018-12-03T06:17:57.546Z,6.60
2018-12-03T06:20:27.700Z,7.40
2018-12-03T06:23:04.476Z,6.83
2018-12-03T06:25:34.434Z,7.20
2018-12-03T06:28:04.721Z,7.13
2018-12-03T06:30:34.593Z,7.17
2018-12-03T06:33:04.055Z,6.90
2018-12-03T06:35:33.500Z,6.43
2018-12-03T06:38:02.733Z,7.47
2018-12-03T06:40:32.757Z,6.03
2018-12-03T06:43:02.277Z,7.37
2018-12-03T06:45:31.539Z,7.47
2018-12-03T06:48:06.159Z,5.83
2018-12-03T06:50:35.467Z,6.20
2018-12-03T06:53:04.796Z,6.20
2018-12-03T06:55:38.007Z,6.53
2018-12-03T06:58:07.809Z,5.93
2018-12-03T07:00:37.022Z,5.53
2018-12-03T07:03:06.479Z,6.07
2018-12-03T07:05:35.814Z,4.97
2018-12-03T07:08:06.224Z,6.90
2018-12-03T07:10:41.906Z,6.00
2018-12-03T07:13:13.193Z,5.17
2018-12-03T07:15:43.601Z,7.47
2018-12-03T07:18:13.440Z,6.43
2018-12-03T07:20:42.719Z,7.67
2018-12-03T07:23:12.801Z,6.57
2018-12-03T07:25:44.740Z,6.00
2018-12-03T07:28:14.061Z,6.20
2018-12-03T07:30:43.310Z,6.33
2018-12-03T07:33:12.393Z,6.43
2018-12-03T07:35:41.650Z,6.80
2018-12-03T07:38:10.793Z,5.67
2018-12-03T07:40:40.286Z,6.00
2018-12-03T07:43:10.254Z,5.80
2018-12-03T07:45:39.488Z,6.47
2018-12-03T07:48:10.370Z,6.27
2018-12-03T07:50:39.719Z,5.87
2018-12-03T07:53:08.919Z,7.03
2018-12-03T07:55:38.286Z,6.40
2018-12-03T07:58:09.793Z,7.43
2018-12-03T08:00:44.555Z,8.60
2018-12-03T08:03:13.777Z,7.13
2018-12-03T08:05:43.393Z,7.00
2018-12-03T08:08:12.611Z,7.63
2018-12-03T08:10:43.675Z,6.23
2018-12-03T08:13:14.925Z,5.70
2018-12-03T08:15:44.132Z,6.33
2018-12-03T08:18:15.933Z,5.00
2018-12-03T08:20:54.699Z,4.87
2018-12-03T08:23:30.973Z,6.03
2018-12-03T08:26:00.535Z,5.70
2018-12-03T08:28:30.064Z,5.67
2018-12-03T08:30:59.246Z,5.43
2018-12-03T08:33:28.467Z,4.97
2018-12-03T08:35:58.663Z,5.57
2018-12-03T08:38:28.815Z,6.60
2018-12-03T08:40:58.071Z,5.17
2018-12-03T08:43:28.274Z,5.50
2018-12-03T08:45:59.563Z,5.40
2018-12-03T08:48:33.850Z,5.27
2018-12-03T08:53:45.738Z,4.90
2018-12-03T08:56:48.378Z,6.27
2018-12-03T08:59:18.397Z,4.40
2018-12-03T09:01:52.628Z,5.47
2018-12-03T09:04:24.059Z,4.77
2018-12-03T09:06:56.449Z,5.67
2018-12-03T09:09:28.335Z,4.97
2018-12-03T09:11:59.839Z,5.60
2018-12-03T09:17:08.315Z,4.67
2018-12-03T09:19:37.735Z,4.97
2018-12-03T09:22:08.324Z,5.03
2018-12-03T09:24:37.544Z,4.17
2018-12-03T09:27:07.878Z,4.67
2018-12-03T09:29:37.090Z,5.43
2018-12-03T09:32:07.828Z,5.57
2018-12-03T09:34:37.290Z,5.40
2018-12-03T09:37:09.889Z,5.00
2018-12-03T09:39:39.126Z,4.67
2018-12-03T09:42:11.681Z,4.53
2018-12-03T09:44:41.836Z,4.80
2018-12-03T09:47:11.624Z,5.37
2018-12-03T09:49:44.943Z,4.80
2018-12-03T09:52:14.273Z,4.83
2018-12-03T09:54:44.969Z,4.83
2018-12-03T09:57:15.885Z,4.80
2018-12-03T09:59:45.764Z,4.90
2018-12-03T10:02:15.034Z,4.80
2018-12-03T10:04:52.703Z,4.77
2018-12-03T10:07:22.038Z,4.17
2018-12-03T10:09:51.310Z,4.57
2018-12-03T10:12:21.804Z,4.70
2018-12-03T10:14:56.958Z,4.53
2018-12-03T10:17:35.659Z,5.37
2018-12-03T10:20:14.409Z,4.57
2018-12-03T10:22:51.888Z,4.03
2018-12-03T10:26:13.668Z,5.10
2018-12-03T10:31:50.565Z,4.97
2018-12-03T10:34:22.248Z,5.90
2018-12-03T10:37:02.047Z,5.83
2018-12-03T10:39:35.929Z,5.27
2018-12-03T10:50:58.423Z,4.97
2018-12-03T10:56:37.804Z,4.33
2018-12-03T10:59:07.832Z,4.70
2018-12-03T11:01:44.054Z,5.20
2018-12-03T11:06:57.798Z,4.47
2018-12-03T11:09:33.097Z,4.37
2018-12-03T11:12:00.643Z,4.40
2018-12-03T11:14:33.446Z,3.90
2018-12-03T11:17:10.409Z,4.23
2018-12-03T11:19:53.825Z,4.40
2018-12-03T11:22:27.228Z,4.03
2018-12-03T11:25:04.161Z,3.77
2018-12-03T11:27:45.978Z,4.00
2018-12-03T11:30:31.497Z,4.00
2018-12-03T11:33:07.915Z,4.37
2018-12-03T11:35:45.947Z,4.53
2018-12-03T11:38:30.461Z,6.13
2018-12-03T11:41:12.797Z,4.40
2018-12-03T11:46:47.082Z,3.93
2018-12-03T11:49:25.715Z,4.17
2018-12-03T11:52:10.078Z,3.63
2018-12-03T11:54:39.532Z,4.37
2018-12-03T11:57:15.074Z,4.00
2018-12-03T11:59:56.608Z,4.20
2018-12-03T12:02:32.007Z,4.60
2018-12-03T12:05:03.473Z,4.50
2018-12-03T12:07:42.382Z,3.87
2018-12-03T12:10:11.448Z,3.90
2018-12-03T12:12:48.397Z,3.63
2018-12-03T12:15:33.177Z,4.57
2018-12-03T12:18:07.508Z,4.50
2018-12-03T12:20:39.720Z,3.27
2018-12-03T12:23:08.950Z,3.20
2018-12-03T12:25:43.673Z,4.33
2018-12-03T12:28:12.983Z,3.53
2018-12-03T12:30:47.907Z,3.33
2018-12-03T12:33:23.642Z,3.10
2018-12-03T12:35:53.738Z,5.73
2018-12-03T12:38:23.197Z,4.80
2018-12-03T12:40:52.483Z,5.33
2018-12-03T12:43:21.665Z,6.63
2018-12-03T12:45:58.136Z,6.57
2018-12-03T12:48:27.735Z,4.20
2018-12-03T12:50:56.916Z,4.40
2018-12-03T12:53:26.072Z,4.90
2018-12-03T12:56:01.401Z,5.17
2018-12-03T12:58:31.899Z,5.80
2018-12-03T13:01:01.092Z,6.57
2018-12-03T13:03:30.642Z,5.77
2018-12-03T13:06:01.144Z,3.43
2018-12-03T13:08:30.366Z,4.13
2018-12-03T13:10:59.535Z,3.87
2018-12-03T13:13:28.618Z,3.20
2018-12-03T13:15:58.799Z,3.00
2018-12-03T13:18:31.029Z,3.30
2018-12-03T13:21:01.212Z,5.67
2018-12-03T13:23:30.336Z,3.07
2018-12-03T13:26:07.336Z,5.10
2018-12-03T13:28:37.613Z,3.80
2018-12-03T13:31:09.198Z,3.77
2018-12-03T13:33:43.506Z,2.80
2018-12-03T13:36:14.865Z,3.73
2018-12-03T13:38:52.172Z,6.53
2018-12-03T13:41:24.853Z,2.50
2018-12-03T13:43:58.622Z,2.87
2018-12-03T13:46:28.891Z,3.93
2018-12-03T13:49:04.679Z,3.23
2018-12-03T13:51:40.295Z,4.90
2018-12-03T13:54:09.816Z,4.17
2018-12-03T13:59:39.074Z,5.43
2018-12-03T14:02:09.801Z,5.87
2018-12-03T14:04:39.865Z,6.10
2018-12-03T14:07:24.536Z,6.03
2018-12-03T14:12:07.645Z,4.17
2018-12-03T14:16:49.469Z,3.37
2018-12-03T14:19:24.044Z,2.53
2018-12-03T14:22:05.547Z,3.57
2018-12-03T14:24:35.288Z,2.97
2018-12-03T14:32:13.022Z,3.07
2018-12-03T14:34:44.640Z,3.37
2018-12-03T14:37:20.267Z,4.80
2018-12-03T14:39:52.253Z,3.70
2018-12-03T14:42:22.166Z,3.70
2018-12-03T14:44:53.808Z,3.00
2018-12-03T14:47:23.741Z,3.30
2018-12-03T14:50:00.712Z,4.00
2018-12-03T14:52:36.370Z,3.63
2018-12-03T14:55:13.938Z,4.27
2018-12-03T14:57:50.661Z,5.20
2018-12-03T15:00:32.563Z,5.10
2018-12-03T15:03:05.940Z,6.03
2018-12-03T15:08:52.224Z,9.93
2018-12-03T15:11:44.599Z,5.60
2018-12-03T15:14:25.299Z,4.67
2018-12-03T15:17:07.540Z,3.40
2018-12-03T15:22:37.808Z,4.53
2018-12-03T15:25:35.978Z,6.90
2018-12-03T15:31:55.014Z,8.10
2018-12-03T15:34:29.663Z,9.33
2018-12-03T15:37:09.844Z,11.37
2018-12-03T15:39:49.253Z,12.40
2018-12-03T15:42:33.954Z,4.37
2018-12-03T15:45:19.983Z,4.83
2018-12-03T15:47:59.436Z,7.23
2018-12-03T15:50:36.583Z,4.27
2018-12-03T15:53:17.709Z,5.33
2018-12-03T15:55:59.174Z,4.30
2018-12-03T15:58:34.940Z,6.33
2018-12-03T16:01:14.569Z,4.60
2018-12-03T16:03:49.918Z,4.83
2018-12-03T16:06:25.100Z,6.90
2018-12-03T16:09:05.750Z,9.07
2018-12-03T16:11:41.494Z,10.87
2018-12-03T16:14:16.229Z,4.67
2018-12-03T16:16:59.925Z,4.37
2018-12-03T16:20:04.084Z,4.30
2018-12-03T16:22:50.491Z,4.20
2018-12-03T16:25:26.220Z,5.60
2018-12-03T16:28:06.592Z,5.37
2018-12-03T16:30:45.675Z,7.73
2018-12-03T16:33:23.574Z,8.23
2018-12-03T16:35:57.135Z,8.07
2018-12-03T16:38:33.215Z,9.03
2018-12-03T16:41:08.780Z,10.60
2018-12-03T16:46:43.250Z,12.37
2018-12-03T16:49:18.658Z,12.87
2018-12-03T16:52:10.832Z,12.33
2018-12-03T16:54:51.305Z,11.47
2018-12-03T16:57:25.323Z,11.70
2018-12-03T17:00:02.832Z,12.73
2018-12-03T17:05:37.135Z,11.50
2018-12-03T17:08:14.991Z,12.60
2018-12-03T17:10:51.031Z,11.17
2018-12-03T17:13:28.514Z,12.67
2018-12-03T17:16:04.924Z,10.37
2018-12-03T17:18:47.077Z,11.67
2018-12-03T17:21:39.578Z,10.07
2018-12-03T17:24:20.056Z,9.97
2018-12-03T17:26:59.382Z,10.00
2018-12-03T17:29:36.838Z,12.10
2018-12-03T17:32:12.869Z,9.13
2018-12-03T17:34:54.174Z,9.43
2018-12-03T17:37:29.522Z,8.87
2018-12-03T17:43:03.999Z,6.20
2018-12-03T17:45:40.603Z,7.40
2018-12-03T17:48:17.356Z,6.93
2018-12-03T17:50:52.803Z,6.97
2018-12-03T17:53:30.127Z,6.57
2018-12-03T17:56:14.973Z,5.27
2018-12-03T17:58:53.702Z,5.20
2018-12-03T18:01:39.583Z,5.00
2018-12-03T18:04:17.263Z,4.70
2018-12-03T18:09:42.898Z,5.67
2018-12-03T18:12:25.675Z,4.07
2018-12-03T18:15:00.430Z,4.57
2018-12-03T18:17:37.617Z,5.57
2018-12-03T18:20:17.965Z,6.37
2018-12-03T18:22:54.650Z,5.63
2018-12-03T18:25:36.678Z,6.07
2018-12-03T18:28:19.927Z,4.83
2018-12-03T18:31:02.416Z,5.97
2018-12-03T18:33:36.762Z,6.33
2018-12-03T18:36:14.987Z,5.93
2018-12-03T18:38:50.812Z,6.20
2018-12-03T18:41:26.085Z,6.67
2018-12-03T18:47:23.740Z,8.37
2018-12-03T18:50:00.218Z,11.90
2018-12-03T18:52:47.008Z,9.40
2018-12-03T18:55:19.398Z,10.87
2018-12-03T18:57:57.650Z,11.37
2018-12-03T19:00:35.180Z,13.17
2018-12-03T19:03:09.744Z,10.17
2018-12-03T19:05:45.855Z,9.70
2018-12-03T19:11:06.801Z,9.00
2018-12-03T19:13:40.699Z,9.47
2018-12-03T19:16:14.484Z,8.93
2018-12-03T19:18:44.808Z,7.83
2018-12-03T19:26:48.222Z,7.93
2018-12-03T19:29:18.769Z,7.50
2018-12-03T19:31:51.201Z,7.30
2018-12-03T19:34:32.654Z,7.50
2018-12-03T19:37:09.670Z,7.40
2018-12-03T19:42:37.367Z,8.40
2018-12-03T19:45:12.755Z,7.23
2018-12-03T19:47:43.620Z,7.30
2018-12-03T19:50:27.826Z,8.73
2018-12-03T19:53:03.110Z,9.03
2018-12-03T19:55:37.065Z,7.60
2018-12-03T19:58:18.024Z,9.17
2018-12-03T20:00:56.901Z,7.73
2018-12-03T20:03:32.671Z,7.80
2018-12-03T20:06:18.474Z,6.93
2018-12-03T20:08:54.402Z,7.47
2018-12-03T20:11:32.190Z,11.30
2018-12-03T20:14:14.115Z,13.57
2018-12-03T20:16:51.176Z,8.07
2018-12-03T20:19:26.655Z,8.17
2018-12-03T20:22:04.803Z,7.90
2018-12-03T20:24:38.977Z,7.80
2018-12-03T20:27:23.209Z,8.10
2018-12-03T20:34:22.016Z,7.77
2018-12-03T20:37:06.997Z,5.80
2018-12-03T20:39:47.258Z,7.50
2018-12-03T20:42:25.358Z,7.47
2018-12-03T20:47:36.557Z,7.63
2018-12-03T20:50:22.749Z,7.67
2018-12-03T20:52:57.910Z,7.43
2018-12-03T20:55:39.539Z,7.83
2018-12-03T20:58:15.040Z,8.80
2018-12-03T21:00:51.771Z,8.23
2018-12-03T21:03:30.318Z,8.00
2018-12-03T21:06:04.974Z,8.47
2018-12-03T21:08:41.409Z,8.87
2018-12-03T21:11:26.735Z,8.57
2018-12-03T21:14:10.436Z,7.83
2018-12-03T21:16:58.771Z,9.00
2018-12-03T21:19:33.533Z,7.63
2018-12-03T21:22:11.820Z,9.37
2018-12-03T21:24:46.547Z,7.60
2018-12-03T21:27:23.060Z,8.53
2018-12-03T21:29:59.371Z,8.90
2018-12-03T21:32:36.318Z,9.07
2018-12-03T21:35:16.516Z,9.10
2018-12-03T21:37:49.895Z,8.83
2018-12-03T21:40:31.442Z,9.73
2018-12-03T21:43:07.858Z,8.33
2018-12-03T21:45:44.059Z,9.73
2018-12-03T21:48:21.182Z,9.60
2018-12-03T21:50:54.564Z,9.70
2018-12-03T21:53:35.043Z,10.30
2018-12-03T21:56:08.452Z,9.90
2018-12-03T21:58:43.609Z,10.73
2018-12-03T22:01:17.603Z,10.53
2018-12-03T22:03:50.764Z,10.63
2018-12-03T22:06:26.519Z,11.53
2018-12-03T22:09:04.056Z,12.23
2018-12-03T22:14:28.084Z,11.70
2018-12-03T22:19:53.652Z,11.17
2018-12-03T22:22:35.258Z,12.27
2018-12-03T22:31:05.417Z,10.13
2018-12-03T22:33:50.384Z,9.47
2018-12-03T22:36:41.393Z,9.77
2018-12-03T22:39:25.289Z,6.60
2018-12-03T22:42:03.862Z,5.97
2018-12-03T22:44:39.523Z,4.90
2018-12-03T22:47:14.257Z,5.10
2018-12-03T22:49:53.258Z,7.13
2018-12-03T22:52:31.239Z,7.30
2018-12-03T23:20:45.578Z,1.20
2018-12-03T23:23:16.885Z,1.27
2018-12-03T23:25:51.758Z,1.00
2018-12-03T23:28:24.851Z,0.97
2018-12-03T23:33:57.908Z,0.70
2018-12-03T23:36:31.203Z,0.83
2018-12-03T23:39:07.311Z,0.80
2018-12-03T23:41:43.309Z,0.60
2018-12-03T23:44:19.978Z,0.90
2018-12-03T23:46:52.308Z,1.00
2018-12-03T23:49:24.979Z,1.13
2018-12-03T23:51:58.688Z,0.63
2018-12-03T23:54:32.182Z,1.07
2018-12-03T23:57:06.950Z,0.60
2018-12-03T23:59:41.492Z,0.53
